sensor_id;sensor_type;location;lat;lon;timestamp;P1;durP1;ratioP1;P2;durP2;ratioP2
62179;SDS011;48172;53.374;10.722;2022-09-09T00:04:00;7.05;;;5.90;;
62179;SDS011;48172;53.374;10.722;2022-09-09T00:06:32;6.03;;;4.90;;
62179;SDS011;48172;53.374;10.722;2022-09-09T00:09:17;6.10;;;5.50;;
62179;SDS011;48172;53.374;10.722;2022-09-09T00:11:48;7.38;;;5.50;;
62179;SDS011;48172;53.374;10.722;2022-09-09T00:14:23;5.72;;;4.97;;
62179;SDS011;48172;53.374;10.722;2022-09-09T00:17:00;6.57;;;5.43;;
62179;SDS011;48172;53.374;10.722;2022-09-09T00:19:54;6.32;;;5.10;;
62179;SDS011;48172;53.374;10.722;2022-09-09T00:22:29;5.97;;;5.10;;
62179;SDS011;48172;53.374;10.722;2022-09-09T00:30:15;7.38;;;5.22;;
62179;SDS011;48172;53.374;10.722;2022-09-09T00:32:49;5.88;;;4.93;;
62179;SDS011;48172;53.374;10.722;2022-09-09T00:37:56;6.00;;;5.05;;
62179;SDS011;48172;53.374;10.722;2022-09-09T00:40:41;6.30;;;5.43;;
62179;SDS011;48172;53.374;10.722;2022-09-09T00:43:21;5.85;;;5.25;;
62179;SDS011;48172;53.374;10.722;2022-09-09T00:45:56;6.13;;;4.93;;
62179;SDS011;48172;53.374;10.722;2022-09-09T00:48:53;5.85;;;4.78;;
62179;SDS011;48172;53.374;10.722;2022-09-09T00:54:13;5.82;;;4.78;;
62179;SDS011;48172;53.374;10.722;2022-09-09T01:05:02;5.95;;;4.38;;
62179;SDS011;48172;53.374;10.722;2022-09-09T01:07:38;5.65;;;4.45;;
62179;SDS011;48172;53.374;10.722;2022-09-09T01:10:15;5.47;;;4.60;;
62179;SDS011;48172;53.374;10.722;2022-09-09T01:12:52;4.65;;;4.15;;
62179;SDS011;48172;53.374;10.722;2022-09-09T01:15:26;5.55;;;4.93;;
62179;SDS011;48172;53.374;10.722;2022-09-09T01:18:06;5.60;;;4.57;;
62179;SDS011;48172;53.374;10.722;2022-09-09T01:20:45;5.35;;;4.38;;
62179;SDS011;48172;53.374;10.722;2022-09-09T01:26:18;5.13;;;4.43;;
62179;SDS011;48172;53.374;10.722;2022-09-09T01:28:49;5.38;;;4.30;;
62179;SDS011;48172;53.374;10.722;2022-09-09T01:31:37;5.05;;;4.47;;
62179;SDS011;48172;53.374;10.722;2022-09-09T01:34:11;5.00;;;4.00;;
62179;SDS011;48172;53.374;10.722;2022-09-09T01:39:17;4.70;;;4.20;;
62179;SDS011;48172;53.374;10.722;2022-09-09T01:41:43;5.47;;;4.30;;
62179;SDS011;48172;53.374;10.722;2022-09-09T01:44:10;4.93;;;3.97;;
62179;SDS011;48172;53.374;10.722;2022-09-09T01:46:37;5.30;;;4.20;;
62179;SDS011;48172;53.374;10.722;2022-09-09T01:49:03;5.38;;;4.75;;
62179;SDS011;48172;53.374;10.722;2022-09-09T01:51:33;4.53;;;4.00;;
62179;SDS011;48172;53.374;10.722;2022-09-09T01:54:00;5.40;;;4.70;;
62179;SDS011;48172;53.374;10.722;2022-09-09T02:02:16;4.40;;;4.00;;
62179;SDS011;48172;53.374;10.722;2022-09-09T02:05:02;4.82;;;4.20;;
62179;SDS011;48172;53.374;10.722;2022-09-09T02:07:49;4.63;;;4.15;;
62179;SDS011;48172;53.374;10.722;2022-09-09T02:10:37;4.40;;;3.90;;
62179;SDS011;48172;53.374;10.722;2022-09-09T02:13:12;5.28;;;4.13;;
62179;SDS011;48172;53.374;10.722;2022-09-09T02:16:03;5.05;;;4.05;;
62179;SDS011;48172;53.374;10.722;2022-09-09T02:18:32;3.88;;;3.53;;
62179;SDS011;48172;53.374;10.722;2022-09-09T02:21:13;4.63;;;3.88;;
62179;SDS011;48172;53.374;10.722;2022-09-09T02:23:41;4.28;;;3.60;;
62179;SDS011;48172;53.374;10.722;2022-09-09T02:26:09;4.22;;;3.83;;
62179;SDS011;48172;53.374;10.722;2022-09-09T02:28:39;4.95;;;3.95;;
62179;SDS011;48172;53.374;10.722;2022-09-09T02:31:08;4.22;;;3.75;;
62179;SDS011;48172;53.374;10.722;2022-09-09T02:33:37;4.55;;;3.88;;
62179;SDS011;48172;53.374;10.722;2022-09-09T02:36:07;4.10;;;3.70;;
62179;SDS011;48172;53.374;10.722;2022-09-09T02:38:41;4.10;;;3.60;;
62179;SDS011;48172;53.374;10.722;2022-09-09T02:41:11;4.07;;;3.67;;
62179;SDS011;48172;53.374;10.722;2022-09-09T02:43:38;4.20;;;3.80;;
62179;SDS011;48172;53.374;10.722;2022-09-09T02:48:59;3.83;;;3.40;;
62179;SDS011;48172;53.374;10.722;2022-09-09T02:54:10;4.60;;;3.88;;
62179;SDS011;48172;53.374;10.722;2022-09-09T02:56:49;4.20;;;3.72;;
62179;SDS011;48172;53.374;10.722;2022-09-09T02:59:20;3.83;;;3.42;;
62179;SDS011;48172;53.374;10.722;2022-09-09T03:01:48;3.72;;;3.33;;
62179;SDS011;48172;53.374;10.722;2022-09-09T03:04:14;5.18;;;3.65;;
62179;SDS011;48172;53.374;10.722;2022-09-09T03:06:41;4.10;;;3.70;;
62179;SDS011;48172;53.374;10.722;2022-09-09T03:09:07;3.92;;;3.42;;
62179;SDS011;48172;53.374;10.722;2022-09-09T03:11:36;4.78;;;3.70;;
62179;SDS011;48172;53.374;10.722;2022-09-09T03:14:04;3.75;;;3.35;;
62179;SDS011;48172;53.374;10.722;2022-09-09T03:16:30;4.03;;;3.53;;
62179;SDS011;48172;53.374;10.722;2022-09-09T03:18:59;3.80;;;3.40;;
62179;SDS011;48172;53.374;10.722;2022-09-09T03:21:26;3.63;;;3.33;;
62179;SDS011;48172;53.374;10.722;2022-09-09T03:23:52;3.75;;;3.33;;
62179;SDS011;48172;53.374;10.722;2022-09-09T03:26:19;3.55;;;3.25;;
62179;SDS011;48172;53.374;10.722;2022-09-09T03:28:46;4.07;;;3.45;;
62179;SDS011;48172;53.374;10.722;2022-09-09T03:31:12;3.70;;;3.40;;
62179;SDS011;48172;53.374;10.722;2022-09-09T03:33:39;3.47;;;3.17;;
62179;SDS011;48172;53.374;10.722;2022-09-09T03:36:07;3.83;;;3.38;;
62179;SDS011;48172;53.374;10.722;2022-09-09T03:38:37;3.75;;;3.35;;
62179;SDS011;48172;53.374;10.722;2022-09-09T03:41:03;3.55;;;3.25;;
62179;SDS011;48172;53.374;10.722;2022-09-09T03:43:32;3.45;;;3.15;;
62179;SDS011;48172;53.374;10.722;2022-09-09T03:45:58;3.53;;;3.10;;
62179;SDS011;48172;53.374;10.722;2022-09-09T03:48:25;3.30;;;3.00;;
62179;SDS011;48172;53.374;10.722;2022-09-09T03:50:54;3.63;;;3.10;;
62179;SDS011;48172;53.374;10.722;2022-09-09T03:53:22;3.28;;;2.92;;
62179;SDS011;48172;53.374;10.722;2022-09-09T03:55:51;3.45;;;2.88;;
62179;SDS011;48172;53.374;10.722;2022-09-09T03:58:21;3.40;;;3.10;;
62179;SDS011;48172;53.374;10.722;2022-09-09T04:00:56;3.45;;;3.10;;
62179;SDS011;48172;53.374;10.722;2022-09-09T04:03:25;3.20;;;2.90;;
62179;SDS011;48172;53.374;10.722;2022-09-09T04:05:54;3.40;;;3.03;;
62179;SDS011;48172;53.374;10.722;2022-09-09T04:08:22;3.80;;;3.20;;
62179;SDS011;48172;53.374;10.722;2022-09-09T04:10:51;3.78;;;3.10;;
62179;SDS011;48172;53.374;10.722;2022-09-09T04:13:19;3.35;;;2.88;;
62179;SDS011;48172;53.374;10.722;2022-09-09T04:15:52;3.33;;;3.03;;
62179;SDS011;48172;53.374;10.722;2022-09-09T04:18:19;3.25;;;2.95;;
62179;SDS011;48172;53.374;10.722;2022-09-09T04:20:49;3.47;;;3.00;;
62179;SDS011;48172;53.374;10.722;2022-09-09T04:23:17;3.45;;;3.15;;
62179;SDS011;48172;53.374;10.722;2022-09-09T04:25:45;3.10;;;2.70;;
62179;SDS011;48172;53.374;10.722;2022-09-09T04:28:16;3.15;;;2.85;;
62179;SDS011;48172;53.374;10.722;2022-09-09T04:30:43;3.75;;;2.88;;
62179;SDS011;48172;53.374;10.722;2022-09-09T04:33:10;3.17;;;2.88;;
62179;SDS011;48172;53.374;10.722;2022-09-09T04:35:38;2.92;;;2.58;;
62179;SDS011;48172;53.374;10.722;2022-09-09T04:38:05;2.85;;;2.65;;
62179;SDS011;48172;53.374;10.722;2022-09-09T04:40:35;3.13;;;2.83;;
62179;SDS011;48172;53.374;10.722;2022-09-09T04:43:02;3.00;;;2.70;;
62179;SDS011;48172;53.374;10.722;2022-09-09T04:45:31;3.00;;;2.70;;
62179;SDS011;48172;53.374;10.722;2022-09-09T04:47:58;2.78;;;2.58;;
62179;SDS011;48172;53.374;10.722;2022-09-09T04:50:25;2.95;;;2.70;;
62179;SDS011;48172;53.374;10.722;2022-09-09T04:52:51;2.63;;;2.40;;
62179;SDS011;48172;53.374;10.722;2022-09-09T04:55:18;3.15;;;2.80;;
62179;SDS011;48172;53.374;10.722;2022-09-09T04:57:44;3.22;;;2.92;;
62179;SDS011;48172;53.374;10.722;2022-09-09T05:00:11;3.05;;;2.75;;
62179;SDS011;48172;53.374;10.722;2022-09-09T05:02:39;2.80;;;2.60;;
62179;SDS011;48172;53.374;10.722;2022-09-09T05:05:06;2.92;;;2.63;;
62179;SDS011;48172;53.374;10.722;2022-09-09T05:07:32;2.70;;;2.50;;
62179;SDS011;48172;53.374;10.722;2022-09-09T05:09:59;3.33;;;2.60;;
62179;SDS011;48172;53.374;10.722;2022-09-09T05:12:25;2.50;;;2.30;;
62179;SDS011;48172;53.374;10.722;2022-09-09T05:14:52;2.83;;;2.30;;
62179;SDS011;48172;53.374;10.722;2022-09-09T05:17:18;1.95;;;1.83;;
62179;SDS011;48172;53.374;10.722;2022-09-09T05:19:45;2.30;;;2.08;;
62179;SDS011;48172;53.374;10.722;2022-09-09T05:22:11;3.15;;;2.67;;
62179;SDS011;48172;53.374;10.722;2022-09-09T05:24:38;2.88;;;2.58;;
62179;SDS011;48172;53.374;10.722;2022-09-09T05:27:05;2.60;;;2.40;;
62179;SDS011;48172;53.374;10.722;2022-09-09T05:29:32;3.42;;;2.67;;
62179;SDS011;48172;53.374;10.722;2022-09-09T05:32:02;3.60;;;3.30;;
62179;SDS011;48172;53.374;10.722;2022-09-09T05:34:29;3.65;;;3.13;;
62179;SDS011;48172;53.374;10.722;2022-09-09T05:36:56;7.45;;;3.97;;
62179;SDS011;48172;53.374;10.722;2022-09-09T05:39:22;4.45;;;3.28;;
62179;SDS011;48172;53.374;10.722;2022-09-09T05:41:49;6.45;;;3.63;;
62179;SDS011;48172;53.374;10.722;2022-09-09T05:44:16;3.35;;;2.92;;
62179;SDS011;48172;53.374;10.722;2022-09-09T05:46:42;3.15;;;2.70;;
62179;SDS011;48172;53.374;10.722;2022-09-09T05:49:09;2.63;;;2.20;;
62179;SDS011;48172;53.374;10.722;2022-09-09T05:51:36;2.63;;;2.40;;
62179;SDS011;48172;53.374;10.722;2022-09-09T05:54:03;4.22;;;2.22;;
62179;SDS011;48172;53.374;10.722;2022-09-09T05:56:30;2.80;;;2.30;;
62179;SDS011;48172;53.374;10.722;2022-09-09T05:58:56;2.53;;;2.17;;
62179;SDS011;48172;53.374;10.722;2022-09-09T06:01:24;3.70;;;2.08;;
62179;SDS011;48172;53.374;10.722;2022-09-09T06:03:55;5.88;;;2.08;;
62179;SDS011;48172;53.374;10.722;2022-09-09T06:06:22;3.30;;;2.05;;
62179;SDS011;48172;53.374;10.722;2022-09-09T06:08:52;2.75;;;1.90;;
62179;SDS011;48172;53.374;10.722;2022-09-09T06:11:21;5.65;;;2.00;;
62179;SDS011;48172;53.374;10.722;2022-09-09T06:13:50;3.83;;;2.20;;
62179;SDS011;48172;53.374;10.722;2022-09-09T06:16:21;3.08;;;2.03;;
62179;SDS011;48172;53.374;10.722;2022-09-09T06:18:50;2.35;;;1.90;;
62179;SDS011;48172;53.374;10.722;2022-09-09T06:21:21;3.08;;;1.92;;
62179;SDS011;48172;53.374;10.722;2022-09-09T06:23:56;2.22;;;1.60;;
62179;SDS011;48172;53.374;10.722;2022-09-09T06:26:30;1.77;;;1.63;;
62179;SDS011;48172;53.374;10.722;2022-09-09T06:28:59;2.80;;;1.75;;
62179;SDS011;48172;53.374;10.722;2022-09-09T06:31:27;2.13;;;1.92;;
62179;SDS011;48172;53.374;10.722;2022-09-09T06:33:57;2.50;;;1.95;;
62179;SDS011;48172;53.374;10.722;2022-09-09T06:38:52;1.63;;;1.52;;
62179;SDS011;48172;53.374;10.722;2022-09-09T06:41:19;1.42;;;1.30;;
62179;SDS011;48172;53.374;10.722;2022-09-09T06:43:47;2.85;;;1.80;;
62179;SDS011;48172;53.374;10.722;2022-09-09T06:46:15;1.90;;;1.70;;
62179;SDS011;48172;53.374;10.722;2022-09-09T06:48:43;1.98;;;1.77;;
62179;SDS011;48172;53.374;10.722;2022-09-09T06:51:17;2.58;;;1.80;;
62179;SDS011;48172;53.374;10.722;2022-09-09T06:53:45;1.52;;;1.30;;
62179;SDS011;48172;53.374;10.722;2022-09-09T06:56:29;2.13;;;1.80;;
62179;SDS011;48172;53.374;10.722;2022-09-09T06:58:58;2.70;;;1.77;;
62179;SDS011;48172;53.374;10.722;2022-09-09T07:01:28;2.22;;;1.50;;
62179;SDS011;48172;53.374;10.722;2022-09-09T07:03:59;2.08;;;1.50;;
62179;SDS011;48172;53.374;10.722;2022-09-09T07:06:31;3.85;;;1.80;;
62179;SDS011;48172;53.374;10.722;2022-09-09T07:09:03;1.70;;;1.60;;
62179;SDS011;48172;53.374;10.722;2022-09-09T07:11:33;3.07;;;1.63;;
62179;SDS011;48172;53.374;10.722;2022-09-09T07:14:07;2.38;;;1.63;;
62179;SDS011;48172;53.374;10.722;2022-09-09T07:16:34;2.75;;;1.50;;
62179;SDS011;48172;53.374;10.722;2022-09-09T07:19:03;2.78;;;1.90;;
62179;SDS011;48172;53.374;10.722;2022-09-09T07:21:31;2.80;;;1.80;;
62179;SDS011;48172;53.374;10.722;2022-09-09T07:23:58;2.17;;;1.50;;
62179;SDS011;48172;53.374;10.722;2022-09-09T07:26:26;1.90;;;1.40;;
62179;SDS011;48172;53.374;10.722;2022-09-09T07:28:54;1.70;;;1.52;;
62179;SDS011;48172;53.374;10.722;2022-09-09T07:31:28;2.03;;;1.40;;
62179;SDS011;48172;53.374;10.722;2022-09-09T07:36:25;2.47;;;1.20;;
62179;SDS011;48172;53.374;10.722;2022-09-09T07:39:03;1.90;;;1.60;;
62179;SDS011;48172;53.374;10.722;2022-09-09T07:41:35;1.98;;;1.75;;
62179;SDS011;48172;53.374;10.722;2022-09-09T07:44:13;2.58;;;1.52;;
62179;SDS011;48172;53.374;10.722;2022-09-09T07:46:42;1.45;;;1.30;;
62179;SDS011;48172;53.374;10.722;2022-09-09T07:49:09;1.67;;;1.45;;
62179;SDS011;48172;53.374;10.722;2022-09-09T07:51:41;1.58;;;1.35;;
62179;SDS011;48172;53.374;10.722;2022-09-09T07:54:10;2.60;;;1.50;;
62179;SDS011;48172;53.374;10.722;2022-09-09T07:56:39;1.70;;;1.60;;
62179;SDS011;48172;53.374;10.722;2022-09-09T07:59:06;1.70;;;1.58;;
62179;SDS011;48172;53.374;10.722;2022-09-09T08:01:37;1.75;;;1.50;;
62179;SDS011;48172;53.374;10.722;2022-09-09T08:04:09;2.50;;;1.50;;
62179;SDS011;48172;53.374;10.722;2022-09-09T08:06:42;1.45;;;1.35;;
62179;SDS011;48172;53.374;10.722;2022-09-09T08:09:10;2.55;;;1.50;;
62179;SDS011;48172;53.374;10.722;2022-09-09T08:11:36;2.47;;;1.30;;
62179;SDS011;48172;53.374;10.722;2022-09-09T08:14:05;1.70;;;1.27;;
62179;SDS011;48172;53.374;10.722;2022-09-09T08:16:34;2.47;;;1.40;;
62179;SDS011;48172;53.374;10.722;2022-09-09T08:19:03;2.15;;;1.50;;
62179;SDS011;48172;53.374;10.722;2022-09-09T08:21:32;1.23;;;1.10;;
62179;SDS011;48172;53.374;10.722;2022-09-09T08:24:00;2.35;;;1.15;;
62179;SDS011;48172;53.374;10.722;2022-09-09T08:26:31;2.45;;;1.33;;
62179;SDS011;48172;53.374;10.722;2022-09-09T08:29:00;1.92;;;1.40;;
62179;SDS011;48172;53.374;10.722;2022-09-09T08:31:30;1.80;;;1.38;;
62179;SDS011;48172;53.374;10.722;2022-09-09T08:33:59;3.40;;;1.50;;
62179;SDS011;48172;53.374;10.722;2022-09-09T08:36:30;1.23;;;0.93;;
62179;SDS011;48172;53.374;10.722;2022-09-09T08:38:59;1.45;;;1.35;;
62179;SDS011;48172;53.374;10.722;2022-09-09T08:49:43;2.00;;;1.60;;
62179;SDS011;48172;53.374;10.722;2022-09-09T08:52:14;2.53;;;1.40;;
62179;SDS011;48172;53.374;10.722;2022-09-09T08:54:45;4.22;;;1.63;;
62179;SDS011;48172;53.374;10.722;2022-09-09T08:57:25;2.33;;;1.13;;
62179;SDS011;48172;53.374;10.722;2022-09-09T08:59:53;1.65;;;1.30;;
62179;SDS011;48172;53.374;10.722;2022-09-09T09:02:39;3.78;;;1.40;;
62179;SDS011;48172;53.374;10.722;2022-09-09T09:05:32;2.85;;;1.00;;
62179;SDS011;48172;53.374;10.722;2022-09-09T09:08:17;1.92;;;1.30;;
62179;SDS011;48172;53.374;10.722;2022-09-09T09:10:56;3.30;;;1.30;;
62179;SDS011;48172;53.374;10.722;2022-09-09T09:16:14;1.88;;;1.20;;
62179;SDS011;48172;53.374;10.722;2022-09-09T09:18:48;2.65;;;1.20;;
62179;SDS011;48172;53.374;10.722;2022-09-09T09:24:00;3.70;;;1.17;;
62179;SDS011;48172;53.374;10.722;2022-09-09T09:26:30;1.45;;;1.20;;
62179;SDS011;48172;53.374;10.722;2022-09-09T09:28:59;2.27;;;1.40;;
62179;SDS011;48172;53.374;10.722;2022-09-09T09:31:34;1.77;;;1.05;;
62179;SDS011;48172;53.374;10.722;2022-09-09T09:34:00;1.17;;;1.08;;
62179;SDS011;48172;53.374;10.722;2022-09-09T09:36:37;1.90;;;1.17;;
62179;SDS011;48172;53.374;10.722;2022-09-09T09:39:08;2.45;;;1.20;;
62179;SDS011;48172;53.374;10.722;2022-09-09T09:41:55;2.25;;;1.13;;
62179;SDS011;48172;53.374;10.722;2022-09-09T09:44:30;2.03;;;1.15;;
62179;SDS011;48172;53.374;10.722;2022-09-09T09:47:14;1.15;;;1.05;;
62179;SDS011;48172;53.374;10.722;2022-09-09T09:49:56;1.30;;;1.20;;
62179;SDS011;48172;53.374;10.722;2022-09-09T09:52:30;3.50;;;1.40;;
62179;SDS011;48172;53.374;10.722;2022-09-09T09:54:58;1.77;;;1.00;;
62179;SDS011;48172;53.374;10.722;2022-09-09T09:57:33;3.42;;;1.20;;
62179;SDS011;48172;53.374;10.722;2022-09-09T10:02:47;2.03;;;1.00;;
62179;SDS011;48172;53.374;10.722;2022-09-09T10:05:19;1.02;;;0.93;;
62179;SDS011;48172;53.374;10.722;2022-09-09T10:08:09;1.90;;;1.00;;
62179;SDS011;48172;53.374;10.722;2022-09-09T10:16:25;2.28;;;0.93;;
62179;SDS011;48172;53.374;10.722;2022-09-09T10:19:13;3.85;;;1.30;;
62179;SDS011;48172;53.374;10.722;2022-09-09T10:32:40;1.20;;;1.05;;
62179;SDS011;48172;53.374;10.722;2022-09-09T10:38:10;1.65;;;1.40;;
62179;SDS011;48172;53.374;10.722;2022-09-09T10:43:28;2.47;;;1.40;;
62179;SDS011;48172;53.374;10.722;2022-09-09T10:46:05;1.92;;;1.40;;
62179;SDS011;48172;53.374;10.722;2022-09-09T10:56:26;93.80;;;78.10;;
62179;SDS011;48172;53.374;10.722;2022-09-09T10:58:59;74.50;;;65.10;;
62179;SDS011;48172;53.374;10.722;2022-09-09T11:01:36;47.92;;;42.40;;
62179;SDS011;48172;53.374;10.722;2022-09-09T11:04:51;49.33;;;43.97;;
62179;SDS011;48172;53.374;10.722;2022-09-09T11:07:07;42.78;;;38.47;;
62179;SDS011;48172;53.374;10.722;2022-09-09T11:09:39;46.70;;;41.80;;
62179;SDS011;48172;53.374;10.722;2022-09-09T11:12:15;46.50;;;41.42;;
62179;SDS011;48172;53.374;10.722;2022-09-09T11:14:47;53.08;;;46.95;;
62179;SDS011;48172;53.374;10.722;2022-09-09T11:19:48;53.28;;;44.97;;
62179;SDS011;48172;53.374;10.722;2022-09-09T11:25:06;47.92;;;43.05;;
62179;SDS011;48172;53.374;10.722;2022-09-09T11:33:27;49.17;;;42.50;;
62179;SDS011;48172;53.374;10.722;2022-09-09T11:39:06;44.25;;;39.78;;
62179;SDS011;48172;53.374;10.722;2022-09-09T11:41:53;47.17;;;42.47;;
62179;SDS011;48172;53.374;10.722;2022-09-09T11:44:24;45.63;;;41.03;;
62179;SDS011;48172;53.374;10.722;2022-09-09T11:46:55;47.65;;;42.75;;
62179;SDS011;48172;53.374;10.722;2022-09-09T11:51:53;50.03;;;45.03;;
62179;SDS011;48172;53.374;10.722;2022-09-09T11:54:28;50.55;;;45.17;;
62179;SDS011;48172;53.374;10.722;2022-09-09T11:56:58;49.30;;;44.30;;
62179;SDS011;48172;53.374;10.722;2022-09-09T12:01:59;46.88;;;41.97;;
62179;SDS011;48172;53.374;10.722;2022-09-09T12:04:29;47.55;;;42.75;;
62179;SDS011;48172;53.374;10.722;2022-09-09T12:09:48;100.25;;;88.43;;
62179;SDS011;48172;53.374;10.722;2022-09-09T12:15:20;71.05;;;63.35;;
62179;SDS011;48172;53.374;10.722;2022-09-09T12:17:50;92.70;;;82.70;;
62179;SDS011;48172;53.374;10.722;2022-09-09T12:33:51;89.85;;;80.38;;
62179;SDS011;48172;53.374;10.722;2022-09-09T12:36:19;89.18;;;80.13;;
62179;SDS011;48172;53.374;10.722;2022-09-09T12:38:54;88.22;;;79.03;;
62179;SDS011;48172;53.374;10.722;2022-09-09T12:41:26;88.68;;;79.25;;
62179;SDS011;48172;53.374;10.722;2022-09-09T12:44:04;84.72;;;76.00;;
62179;SDS011;48172;53.374;10.722;2022-09-09T12:46:39;84.78;;;75.85;;
62179;SDS011;48172;53.374;10.722;2022-09-09T12:52:29;81.57;;;73.03;;
62179;SDS011;48172;53.374;10.722;2022-09-09T12:55:00;80.10;;;71.63;;
62179;SDS011;48172;53.374;10.722;2022-09-09T12:57:34;78.88;;;70.72;;
62179;SDS011;48172;53.374;10.722;2022-09-09T13:00:15;76.97;;;68.93;;
62179;SDS011;48172;53.374;10.722;2022-09-09T13:02:52;74.47;;;66.88;;
62179;SDS011;48172;53.374;10.722;2022-09-09T13:05:27;76.25;;;68.57;;
62179;SDS011;48172;53.374;10.722;2022-09-09T13:08:00;74.95;;;67.20;;
62179;SDS011;48172;53.374;10.722;2022-09-09T13:11:02;73.38;;;65.82;;
62179;SDS011;48172;53.374;10.722;2022-09-09T13:13:33;70.65;;;63.40;;
62179;SDS011;48172;53.374;10.722;2022-09-09T13:16:02;69.65;;;62.33;;
62179;SDS011;48172;53.374;10.722;2022-09-09T13:18:32;70.40;;;63.13;;
62179;SDS011;48172;53.374;10.722;2022-09-09T13:21:03;67.73;;;60.77;;
62179;SDS011;48172;53.374;10.722;2022-09-09T13:26:06;67.35;;;60.17;;
62179;SDS011;48172;53.374;10.722;2022-09-09T13:28:45;65.90;;;59.25;;
62179;SDS011;48172;53.374;10.722;2022-09-09T13:34:12;65.43;;;58.67;;
62179;SDS011;48172;53.374;10.722;2022-09-09T13:36:39;61.25;;;54.95;;
62179;SDS011;48172;53.374;10.722;2022-09-09T13:39:15;63.20;;;56.72;;
62179;SDS011;48172;53.374;10.722;2022-09-09T13:41:44;62.92;;;56.35;;
62179;SDS011;48172;53.374;10.722;2022-09-09T13:44:19;59.95;;;53.92;;
62179;SDS011;48172;53.374;10.722;2022-09-09T13:46:59;60.05;;;53.83;;
62179;SDS011;48172;53.374;10.722;2022-09-09T13:49:33;58.30;;;52.42;;
62179;SDS011;48172;53.374;10.722;2022-09-09T13:52:09;57.90;;;52.10;;
62179;SDS011;48172;53.374;10.722;2022-09-09T13:54:38;57.10;;;51.22;;
62179;SDS011;48172;53.374;10.722;2022-09-09T13:57:14;55.53;;;49.92;;
62179;SDS011;48172;53.374;10.722;2022-09-09T13:59:45;55.22;;;49.70;;
62179;SDS011;48172;53.374;10.722;2022-09-09T14:02:30;55.03;;;49.47;;
62179;SDS011;48172;53.374;10.722;2022-09-09T14:04:57;55.40;;;49.78;;
62179;SDS011;48172;53.374;10.722;2022-09-09T14:07:24;52.65;;;47.28;;
62179;SDS011;48172;53.374;10.722;2022-09-09T14:09:51;53.22;;;47.88;;
62179;SDS011;48172;53.374;10.722;2022-09-09T14:12:18;51.55;;;46.42;;
62179;SDS011;48172;53.374;10.722;2022-09-09T14:14:49;49.15;;;44.25;;
62179;SDS011;48172;53.374;10.722;2022-09-09T14:17:16;51.22;;;46.15;;
62179;SDS011;48172;53.374;10.722;2022-09-09T14:19:43;49.75;;;44.75;;
62179;SDS011;48172;53.374;10.722;2022-09-09T14:22:12;47.92;;;43.22;;
62179;SDS011;48172;53.374;10.722;2022-09-09T14:24:38;49.40;;;44.50;;
62179;SDS011;48172;53.374;10.722;2022-09-09T14:27:05;46.83;;;42.22;;
62179;SDS011;48172;53.374;10.722;2022-09-09T14:29:32;47.67;;;42.85;;
62179;SDS011;48172;53.374;10.722;2022-09-09T14:31:59;46.20;;;41.53;;
62179;SDS011;48172;53.374;10.722;2022-09-09T14:34:27;45.05;;;40.42;;
62179;SDS011;48172;53.374;10.722;2022-09-09T14:36:53;45.05;;;40.38;;
62179;SDS011;48172;53.374;10.722;2022-09-09T14:39:20;44.92;;;40.45;;
62179;SDS011;48172;53.374;10.722;2022-09-09T14:41:46;44.05;;;39.55;;
62179;SDS011;48172;53.374;10.722;2022-09-09T14:44:13;43.53;;;39.13;;
62179;SDS011;48172;53.374;10.722;2022-09-09T14:46:39;43.55;;;39.35;;
62179;SDS011;48172;53.374;10.722;2022-09-09T14:49:08;42.35;;;38.17;;
62179;SDS011;48172;53.374;10.722;2022-09-09T14:51:36;42.47;;;38.28;;
62179;SDS011;48172;53.374;10.722;2022-09-09T14:54:03;40.88;;;36.88;;
62179;SDS011;48172;53.374;10.722;2022-09-09T14:56:30;42.17;;;38.17;;
62179;SDS011;48172;53.374;10.722;2022-09-09T14:59:00;41.03;;;37.03;;
62179;SDS011;48172;53.374;10.722;2022-09-09T15:01:28;40.80;;;36.72;;
62179;SDS011;48172;53.374;10.722;2022-09-09T15:03:57;39.10;;;35.40;;
62179;SDS011;48172;53.374;10.722;2022-09-09T15:06:27;39.97;;;36.03;;
62179;SDS011;48172;53.374;10.722;2022-09-09T15:08:55;38.40;;;34.50;;
62179;SDS011;48172;53.374;10.722;2022-09-09T15:11:29;38.60;;;34.92;;
62179;SDS011;48172;53.374;10.722;2022-09-09T15:13:59;38.95;;;35.15;;
62179;SDS011;48172;53.374;10.722;2022-09-09T15:16:26;36.47;;;32.90;;
62179;SDS011;48172;53.374;10.722;2022-09-09T15:18:55;36.47;;;32.92;;
62179;SDS011;48172;53.374;10.722;2022-09-09T15:21:24;35.50;;;32.10;;
62179;SDS011;48172;53.374;10.722;2022-09-09T15:23:52;35.47;;;32.15;;
62179;SDS011;48172;53.374;10.722;2022-09-09T15:26:19;36.05;;;32.67;;
62179;SDS011;48172;53.374;10.722;2022-09-09T15:28:47;35.05;;;31.67;;
62179;SDS011;48172;53.374;10.722;2022-09-09T15:31:22;35.15;;;31.67;;
62179;SDS011;48172;53.374;10.722;2022-09-09T15:33:50;34.40;;;31.00;;
62179;SDS011;48172;53.374;10.722;2022-09-09T15:36:22;34.92;;;31.60;;
62179;SDS011;48172;53.374;10.722;2022-09-09T15:38:50;34.65;;;31.35;;
62179;SDS011;48172;53.374;10.722;2022-09-09T15:41:18;32.85;;;29.75;;
62179;SDS011;48172;53.374;10.722;2022-09-09T15:43:47;33.92;;;30.73;;
62179;SDS011;48172;53.374;10.722;2022-09-09T15:49:04;33.28;;;30.08;;
62179;SDS011;48172;53.374;10.722;2022-09-09T15:51:37;31.60;;;28.55;;
62179;SDS011;48172;53.374;10.722;2022-09-09T15:54:11;30.42;;;27.52;;
62179;SDS011;48172;53.374;10.722;2022-09-09T15:56:49;31.15;;;28.17;;
62179;SDS011;48172;53.374;10.722;2022-09-09T15:59:17;30.45;;;27.55;;
62179;SDS011;48172;53.374;10.722;2022-09-09T16:01:44;30.65;;;27.83;;
62179;SDS011;48172;53.374;10.722;2022-09-09T16:04:11;29.67;;;26.85;;
62179;SDS011;48172;53.374;10.722;2022-09-09T16:06:41;29.33;;;26.50;;
62179;SDS011;48172;53.374;10.722;2022-09-09T16:09:08;29.13;;;26.33;;
62179;SDS011;48172;53.374;10.722;2022-09-09T16:11:35;28.55;;;25.85;;
62179;SDS011;48172;53.374;10.722;2022-09-09T16:14:05;28.00;;;25.30;;
62179;SDS011;48172;53.374;10.722;2022-09-09T16:16:33;27.85;;;25.15;;
62179;SDS011;48172;53.374;10.722;2022-09-09T16:19:04;26.27;;;23.77;;
62179;SDS011;48172;53.374;10.722;2022-09-09T16:21:37;27.23;;;24.67;;
62179;SDS011;48172;53.374;10.722;2022-09-09T16:24:09;26.67;;;24.15;;
62179;SDS011;48172;53.374;10.722;2022-09-09T16:26:39;27.02;;;24.50;;
62179;SDS011;48172;53.374;10.722;2022-09-09T16:29:11;26.58;;;23.98;;
62179;SDS011;48172;53.374;10.722;2022-09-09T16:31:39;24.95;;;22.65;;
62179;SDS011;48172;53.374;10.722;2022-09-09T16:34:07;25.13;;;22.83;;
62179;SDS011;48172;53.374;10.722;2022-09-09T16:36:35;24.75;;;22.45;;
62179;SDS011;48172;53.374;10.722;2022-09-09T16:39:05;25.05;;;22.65;;
62179;SDS011;48172;53.374;10.722;2022-09-09T16:41:35;23.63;;;21.33;;
62179;SDS011;48172;53.374;10.722;2022-09-09T16:44:06;22.52;;;20.40;;
62179;SDS011;48172;53.374;10.722;2022-09-09T16:46:35;23.67;;;21.48;;
62179;SDS011;48172;53.374;10.722;2022-09-09T16:49:05;23.98;;;21.85;;
62179;SDS011;48172;53.374;10.722;2022-09-09T16:51:35;22.70;;;20.58;;
62179;SDS011;48172;53.374;10.722;2022-09-09T16:54:05;24.50;;;22.20;;
62179;SDS011;48172;53.374;10.722;2022-09-09T16:56:34;21.83;;;19.83;;
62179;SDS011;48172;53.374;10.722;2022-09-09T16:59:04;23.13;;;20.95;;
62179;SDS011;48172;53.374;10.722;2022-09-09T17:01:34;22.58;;;20.48;;
62179;SDS011;48172;53.374;10.722;2022-09-09T17:04:08;20.77;;;18.88;;
62179;SDS011;48172;53.374;10.722;2022-09-09T17:06:39;20.27;;;18.38;;
62179;SDS011;48172;53.374;10.722;2022-09-09T17:09:09;22.27;;;20.08;;